Time;durP1;ratioP1;P1;durP2;ratioP2;P2;SDS_P1;SDS_P2;PMS_P1;PMS_P2;Temp;Humidity;BMP_temperature;BMP_pressure;BME280_temperature;BME280_humidity;BME280_pressure;Samples;Min_cycle;Max_cycle;Signal;HPM_P1;HPM_P2
2023/01/19 00:01:34;;;;;;;;;;;15.90;59.60;;;;;;10468096;27;89244;-60
2023/01/19 00:06:36;;;;;;;;;;;15.90;59.50;;;;;;10465575;27;89802;-60
2023/01/19 00:11:37;;;;;;;;;;;15.90;59.60;;;;;;10466284;27;88436;-61
2023/01/19 00:16:39;;;;;;;;;;;15.80;59.50;;;;;;10467074;27;89760;-60
2023/01/19 00:21:41;;;;;;;;;;;15.80;59.60;;;;;;10466552;27;88310;-60
2023/01/19 00:26:43;;;;;;;;;;;15.80;60.60;;;;;;10467043;27;89198;-60
2023/01/19 00:31:44;;;;;;;;;;;15.80;59.60;;;;;;10465733;27;89068;-60
2023/01/19 00:36:46;;;;;;;;;;;15.80;59.70;;;;;;10465755;27;89725;-60
2023/01/19 00:47:08;;;;;;;;;;;15.70;59.50;;;;;;10464445;27;88846;-61
2023/01/19 00:52:11;;;;;;;;;;;15.70;59.50;;;;;;10465594;27;88837;-61
2023/01/19 00:57:13;;;;;;;;;;;15.60;59.50;;;;;;10465102;27;88705;-60
2023/01/19 01:02:15;;;;;;;;;;;15.60;59.50;;;;;;10465514;27;89078;-60
2023/01/19 01:07:17;;;;;;;;;;;15.60;59.50;;;;;;10463051;27;88997;-60
2023/01/19 01:12:19;;;;;;;;;;;15.60;59.50;;;;;;10467415;27;91485;-61
2023/01/19 01:17:23;;;;;;;;;;;15.60;59.50;;;;;;10464934;27;88391;-60
2023/01/19 01:22:25;;;;;;;;;;;15.60;59.50;;;;;;10465037;27;89755;-61
2023/01/19 01:27:28;;;;;;;;;;;15.60;59.50;;;;;;10464113;27;89252;-60
2023/01/19 01:32:29;;;;;;;;;;;15.60;59.50;;;;;;10463220;27;88889;-60
2023/01/19 01:37:31;;;;;;;;;;;15.60;59.40;;;;;;10464190;27;88849;-60
2023/01/19 01:42:33;;;;;;;;;;;15.60;59.30;;;;;;10463304;27;89975;-60
2023/01/19 01:47:45;;;;;;;;;;;15.70;59.20;;;;;;10463617;27;89757;-60
2023/01/19 01:53:06;;;;;;;;;;;15.70;59.20;;;;;;10462997;27;89275;-60
2023/01/19 01:58:10;;;;;;;;;;;15.60;59.10;;;;;;10462202;27;90099;-60
2023/01/19 02:03:11;;;;;;;;;;;15.60;59.20;;;;;;10853647;22;91043;-61
2023/01/19 02:13:35;;;;;;;;;;;15.60;59.30;;;;;;10378676;28;89502;-61
2023/01/19 02:18:36;;;;;;;;;;;15.50;59.30;;;;;;10376745;28;89570;-61
2023/01/19 02:23:41;;;;;;;;;;;15.50;59.30;;;;;;10377444;28;89219;-61
2023/01/19 02:28:47;;;;;;;;;;;15.50;59.40;;;;;;10377072;28;89023;-61
2023/01/19 02:33:49;;;;;;;;;;;15.50;59.30;;;;;;10378099;28;88192;-61
2023/01/19 02:38:52;;;;;;;;;;;15.50;59.40;;;;;;10377577;28;89229;-61
2023/01/19 02:43:55;;;;;;;;;;;15.40;59.40;;;;;;10376554;28;89146;-61
2023/01/19 02:49:00;;;;;;;;;;;15.40;59.50;;;;;;10377729;28;89006;-61
2023/01/19 02:54:31;;;;;;;;;;;15.40;59.60;;;;;;10377893;28;88355;-61
2023/01/19 02:59:49;;;;;;;;;;;15.40;59.40;;;;;;10319640;28;89146;-61
2023/01/19 03:05:06;;;;;;;;;;;15.40;59.50;;;;;;10375255;28;89489;-61
2023/01/19 03:10:16;;;;;;;;;;;15.40;59.30;;;;;;10375733;28;90789;-61
2023/01/19 03:15:26;;;;;;;;;;;15.50;59.30;;;;;;10376833;28;89073;-61
2023/01/19 03:20:28;;;;;;;;;;;15.50;59.20;;;;;;10376918;28;88954;-60
2023/01/19 03:25:33;;;;;;;;;;;15.50;59.10;;;;;;10376143;28;89077;-61
2023/01/19 03:30:38;;;;;;;;;;;15.50;59.10;;;;;;10376707;28;88626;-61
2023/01/19 03:35:42;;;;;;;;;;;15.40;59.10;;;;;;10376779;28;90575;-61
2023/01/19 03:40:46;;;;;;;;;;;15.40;59.20;;;;;;10376403;28;89674;-61
2023/01/19 03:45:49;;;;;;;;;;;15.40;59.20;;;;;;10378308;28;88121;-61
2023/01/19 03:50:51;;;;;;;;;;;15.40;60.20;;;;;;10375859;28;90158;-62
2023/01/19 03:55:53;;;;;;;;;;;15.40;59.30;;;;;;10376350;28;88801;-62
2023/01/19 04:00:55;;;;;;;;;;;15.40;59.30;;;;;;10374947;28;90620;-61
2023/01/19 04:05:57;;;;;;;;;;;15.30;59.40;;;;;;10374170;28;89145;-61
2023/01/19 04:10:59;;;;;;;;;;;15.30;59.50;;;;;;10375114;28;89807;-61
2023/01/19 04:16:01;;;;;;;;;;;15.30;59.40;;;;;;10374404;28;89880;-61
2023/01/19 04:21:06;;;;;;;;;;;15.30;59.60;;;;;;10376674;28;89073;-61
2023/01/19 04:26:08;;;;;;;;;;;15.30;59.40;;;;;;10382413;28;89804;-61
2023/01/19 04:31:10;;;;;;;;;;;15.30;59.50;;;;;;10382982;28;90035;-61
2023/01/19 04:36:12;;;;;;;;;;;15.30;59.40;;;;;;10382611;28;89364;-61
2023/01/19 04:41:14;;;;;;;;;;;15.30;59.30;;;;;;10382104;28;89356;-61
2023/01/19 06:03:32;;;;;;;;;;;15.70;59.00;;;;;;10332649;28;88719;-61
2023/01/19 06:08:34;;;;;;;;;;;16.10;58.40;;;;;;10378468;28;89130;-61
2023/01/19 06:13:38;;;;;;;;;;;16.30;57.90;;;;;;10378601;28;88210;-61
2023/01/19 06:18:42;;;;;;;;;;;16.40;57.80;;;;;;10378944;28;90138;-61
2023/01/19 06:23:44;;;;;;;;;;;16.60;57.70;;;;;;10377601;28;88978;-61
2023/01/19 06:28:47;;;;;;;;;;;16.70;57.30;;;;;;10378186;28;89790;-61
2023/01/19 06:33:49;;;;;;;;;;;16.90;57.20;;;;;;10377371;28;89191;-61
2023/01/19 06:38:51;;;;;;;;;;;17.00;57.10;;;;;;10377537;28;88965;-61
2023/01/19 06:43:52;;;;;;;;;;;17.00;57.00;;;;;;10374994;28;88585;-61
2023/01/19 06:48:54;;;;;;;;;;;17.00;57.10;;;;;;10376205;28;89398;-61
2023/01/19 06:53:56;;;;;;;;;;;16.90;57.40;;;;;;10376757;28;89108;-61
2023/01/19 06:58:58;;;;;;;;;;;16.80;57.90;;;;;;10377209;28;89872;-61
2023/01/19 07:04:00;;;;;;;;;;;16.70;58.90;;;;;;10375948;28;88899;-61
2023/01/19 07:09:06;;;;;;;;;;;16.70;59.50;;;;;;10376417;28;89833;-61
2023/01/19 07:14:08;;;;;;;;;;;16.70;59.60;;;;;;10375659;28;88720;-61
2023/01/19 07:19:10;;;;;;;;;;;16.60;59.70;;;;;;10376922;28;90062;-61
2023/01/19 07:24:12;;;;;;;;;;;16.50;59.60;;;;;;10377649;28;88108;-61
2023/01/19 07:29:14;;;;;;;;;;;16.50;59.50;;;;;;10377298;28;88789;-61
2023/01/19 07:34:15;;;;;;;;;;;16.40;59.50;;;;;;10376228;28;88803;-60
2023/01/19 07:39:17;;;;;;;;;;;16.30;59.60;;;;;;10375955;28;90852;-61
2023/01/19 07:44:19;;;;;;;;;;;16.30;59.80;;;;;;10377070;28;89249;-61
2023/01/19 07:49:21;;;;;;;;;;;16.20;60.00;;;;;;10375727;28;89163;-61
2023/01/19 07:54:23;;;;;;;;;;;16.10;60.20;;;;;;10375848;28;88881;-61
2023/01/19 07:59:25;;;;;;;;;;;16.10;60.20;;;;;;10383324;28;90198;-61
2023/01/19 08:04:27;;;;;;;;;;;16.00;60.20;;;;;;10381977;28;90007;-61
2023/01/19 08:09:29;;;;;;;;;;;15.90;60.10;;;;;;10382720;28;88781;-61
2023/01/19 08:14:31;;;;;;;;;;;15.90;60.20;;;;;;10383329;28;89058;-61
2023/01/19 08:19:33;;;;;;;;;;;15.80;60.30;;;;;;10382077;28;88748;-61
2023/01/19 08:24:35;;;;;;;;;;;15.70;60.20;;;;;;10381005;28;90043;-60
2023/01/19 08:29:37;;;;;;;;;;;15.70;60.30;;;;;;10381460;28;88836;-61
2023/01/19 08:34:38;;;;;;;;;;;15.60;60.20;;;;;;10379600;28;89688;-61
2023/01/19 08:39:40;;;;;;;;;;;15.60;60.30;;;;;;10380298;28;88562;-61
2023/01/19 08:44:42;;;;;;;;;;;15.50;60.30;;;;;;10381056;28;90067;-61
2023/01/19 08:49:58;;;;;;;;;;;15.50;60.40;;;;;;10381116;28;90063;-61
2023/01/19 08:55:00;;;;;;;;;;;15.50;60.30;;;;;;10380649;28;88234;-60
2023/01/19 09:00:03;;;;;;;;;;;15.40;60.30;;;;;;10380479;28;88341;-61
2023/01/19 09:05:05;;;;;;;;;;;15.40;60.30;;;;;;10380899;28;88320;-61
2023/01/19 09:10:07;;;;;;;;;;;15.40;60.30;;;;;;10380379;28;90072;-61
2023/01/19 09:15:11;;;;;;;;;;;15.30;60.20;;;;;;10380184;28;89672;-61
2023/01/19 09:20:12;;;;;;;;;;;15.30;60.20;;;;;;10360837;28;89714;-61
2023/01/19 09:25:14;;;;;;;;;;;15.30;60.30;;;;;;10380211;28;89077;-60
2023/01/19 09:30:16;;;;;;;;;;;15.30;60.20;;;;;;10379970;28;90013;-61
2023/01/19 09:35:18;;;;;;;;;;;15.30;60.30;;;;;;10379623;28;89114;-61
2023/01/19 09:40:20;;;;;;;;;;;15.30;60.20;;;;;;10380188;28;89993;-60
2023/01/19 09:45:26;;;;;;;;;;;15.30;60.10;;;;;;10379702;28;89909;-61
2023/01/19 09:50:32;;;;;;;;;;;15.30;60.20;;;;;;10379901;28;89774;-61
2023/01/19 09:55:34;;;;;;;;;;;15.30;60.20;;;;;;10379142;28;89492;-61
2023/01/19 10:00:36;;;;;;;;;;;15.30;60.30;;;;;;10379012;28;88695;-61
2023/01/19 10:05:44;;;;;;;;;;;15.30;60.30;;;;;;10377331;28;89997;-61
2023/01/19 10:10:50;;;;;;;;;;;15.30;60.40;;;;;;10377182;28;89735;-61
2023/01/19 10:15:57;;;;;;;;;;;15.20;60.30;;;;;;10378561;28;89760;-61
2023/01/19 10:21:04;;;;;;;;;;;15.20;60.40;;;;;;10378043;28;89183;-61
2023/01/19 10:26:08;;;;;;;;;;;15.20;60.30;;;;;;10378216;28;89031;-61
2023/01/19 10:31:11;;;;;;;;;;;15.20;60.30;;;;;;10378146;28;89844;-61
2023/01/19 10:36:17;;;;;;;;;;;15.20;60.50;;;;;;10377952;28;89383;-61
2023/01/19 10:41:23;;;;;;;;;;;15.20;60.40;;;;;;10376173;28;89027;-61
2023/01/19 10:46:32;;;;;;;;;;;15.20;60.40;;;;;;10379069;28;89398;-61
2023/01/19 10:51:45;;;;;;;;;;;15.20;60.40;;;;;;10377962;28;90336;-61
2023/01/19 10:56:55;;;;;;;;;;;15.20;60.40;;;;;;10374603;28;90072;-60
2023/01/19 11:02:09;;;;;;;;;;;15.20;60.30;;;;;;10376655;28;89745;-61
2023/01/19 11:07:17;;;;;;;;;;;15.10;60.30;;;;;;10376847;28;90297;-60
2023/01/19 11:12:20;;;;;;;;;;;15.10;60.40;;;;;;10375916;28;88884;-60
2023/01/19 11:17:24;;;;;;;;;;;15.10;60.30;;;;;;10376399;28;88515;-61
2023/01/19 11:22:27;;;;;;;;;;;15.10;60.30;;;;;;10377679;28;88843;-61
2023/01/19 11:27:30;;;;;;;;;;;15.10;60.30;;;;;;10376402;28;89988;-61
2023/01/19 11:32:35;;;;;;;;;;;15.10;60.30;;;;;;10376947;28;90410;-61
2023/01/19 11:37:40;;;;;;;;;;;15.00;60.30;;;;;;10375497;28;89123;-61
2023/01/19 11:42:43;;;;;;;;;;;15.00;60.30;;;;;;10377153;28;90034;-61
2023/01/19 11:47:48;;;;;;;;;;;15.00;60.30;;;;;;10374552;28;89104;-61
2023/01/19 11:52:54;;;;;;;;;;;15.00;60.30;;;;;;10375489;28;88986;-61
2023/01/19 11:57:56;;;;;;;;;;;15.00;60.40;;;;;;10375883;28;89825;-61
2023/01/19 12:03:01;;;;;;;;;;;15.00;60.40;;;;;;10375418;28;89040;-61
2023/01/19 12:08:06;;;;;;;;;;;15.00;60.30;;;;;;10375231;28;89221;-61
2023/01/19 12:13:20;;;;;;;;;;;15.00;60.40;;;;;;10375195;28;89043;-61
2023/01/19 12:18:23;;;;;;;;;;;15.00;60.40;;;;;;10375557;28;89698;-61
2023/01/19 12:23:28;;;;;;;;;;;15.00;60.40;;;;;;10375324;28;88695;-61
2023/01/19 12:28:35;;;;;;;;;;;15.00;60.40;;;;;;10375926;28;89300;-61
2023/01/19 12:33:37;;;;;;;;;;;15.00;60.40;;;;;;10374853;28;88177;-61
2023/01/19 12:38:58;;;;;;;;;;;15.00;60.40;;;;;;10374070;28;89122;-61
2023/01/19 12:44:09;;;;;;;;;;;14.90;60.30;;;;;;10378747;28;90748;-61
2023/01/19 12:49:18;;;;;;;;;;;14.90;60.30;;;;;;10380307;28;89573;-61
2023/01/19 12:54:27;;;;;;;;;;;14.90;60.30;;;;;;10381118;28;88927;-61
2023/01/19 12:59:34;;;;;;;;;;;14.90;60.30;;;;;;10379188;28;89666;-61
2023/01/19 13:04:36;;;;;;;;;;;14.90;60.30;;;;;;10380601;28;89087;-61
2023/01/19 13:09:39;;;;;;;;;;;14.90;60.40;;;;;;10379693;28;89191;-61
2023/01/19 13:14:41;;;;;;;;;;;14.90;60.50;;;;;;10380888;28;89030;-60
2023/01/19 13:19:46;;;;;;;;;;;14.90;60.50;;;;;;10380694;28;89279;-60
2023/01/19 13:25:08;;;;;;;;;;;14.90;60.30;;;;;;10381854;28;89047;-60
2023/01/19 13:30:11;;;;;;;;;;;14.90;60.40;;;;;;10379132;28;88899;-61
2023/01/19 13:35:16;;;;;;;;;;;14.90;60.30;;;;;;10379676;28;90722;-61
2023/01/19 13:40:21;;;;;;;;;;;14.90;60.30;;;;;;10379832;28;90093;-61
2023/01/19 13:45:23;;;;;;;;;;;14.90;60.50;;;;;;10380402;28;92222;-61
2023/01/19 13:50:32;;;;;;;;;;;14.90;60.50;;;;;;10379922;28;88751;-61
2023/01/19 13:55:33;;;;;;;;;;;14.90;60.40;;;;;;10379289;28;89722;-60
2023/01/19 14:00:37;;;;;;;;;;;14.90;60.70;;;;;;10379602;28;89442;-60
2023/01/19 14:05:40;;;;;;;;;;;14.90;60.50;;;;;;10378159;28;90131;-61
2023/01/19 14:10:51;;;;;;;;;;;14.90;60.40;;;;;;10380005;28;88318;-61
2023/01/19 14:15:54;;;;;;;;;;;14.90;60.50;;;;;;10378873;28;90257;-61
2023/01/19 14:20:56;;;;;;;;;;;14.90;60.40;;;;;;10379092;28;88999;-61
2023/01/19 14:25:58;;;;;;;;;;;14.90;60.30;;;;;;10377142;28;88959;-61
2023/01/19 14:31:01;;;;;;;;;;;14.80;60.30;;;;;;10378237;28;90413;-61
2023/01/19 14:36:12;;;;;;;;;;;14.80;60.30;;;;;;10376836;28;90329;-61
2023/01/19 14:41:35;;;;;;;;;;;14.80;60.20;;;;;;10376282;28;89027;-61
2023/01/19 14:46:42;;;;;;;;;;;14.80;60.30;;;;;;10378453;28;89833;-61
2023/01/19 14:51:45;;;;;;;;;;;14.80;60.20;;;;;;10376860;28;88026;-61
2023/01/19 14:56:47;;;;;;;;;;;14.80;60.10;;;;;;10378112;28;90295;-61
2023/01/19 15:01:49;;;;;;;;;;;14.80;60.10;;;;;;10377211;28;89188;-61
2023/01/19 15:06:51;;;;;;;;;;;14.80;60.10;;;;;;10346768;28;90055;-60
2023/01/19 15:11:53;;;;;;;;;;;14.70;60.10;;;;;;10336369;28;89047;-61
2023/01/19 15:16:56;;;;;;;;;;;14.70;60.10;;;;;;10335448;28;89067;-60
2023/01/19 15:21:58;;;;;;;;;;;14.70;60.10;;;;;;10335650;28;88981;-60
2023/01/19 15:27:01;;;;;;;;;;;14.70;60.10;;;;;;10335269;28;89071;-61
2023/01/19 15:32:03;;;;;;;;;;;14.70;60.00;;;;;;10335043;28;89296;-61
2023/01/19 15:37:05;;;;;;;;;;;14.70;60.00;;;;;;10334711;28;89032;-60
2023/01/19 15:42:13;;;;;;;;;;;14.70;60.00;;;;;;10334872;28;89387;-60
2023/01/19 15:47:15;;;;;;;;;;;14.70;60.00;;;;;;10335002;28;89001;-61
2023/01/19 15:52:16;;;;;;;;;;;14.70;60.00;;;;;;10334096;28;89299;-60
2023/01/19 15:57:18;;;;;;;;;;;14.60;60.00;;;;;;10334822;28;89758;-60
2023/01/19 16:02:20;;;;;;;;;;;14.60;61.00;;;;;;10332566;28;88911;-61
2023/01/19 16:07:22;;;;;;;;;;;14.60;60.00;;;;;;10334004;28;90907;-60
2023/01/19 16:12:24;;;;;;;;;;;14.60;60.10;;;;;;10332883;28;90364;-60
2023/01/19 16:17:26;;;;;;;;;;;14.60;60.30;;;;;;10337625;28;88383;-61
2023/01/19 16:22:28;;;;;;;;;;;14.70;60.40;;;;;;10341386;28;89053;-60
2023/01/19 16:27:30;;;;;;;;;;;14.80;60.30;;;;;;10341663;28;88903;-60
2023/01/19 16:32:32;;;;;;;;;;;15.10;60.20;;;;;;10340727;28;89039;-61
2023/01/19 16:37:35;;;;;;;;;;;15.30;59.80;;;;;;10340998;28;88961;-61
2023/01/19 16:42:37;;;;;;;;;;;15.50;59.40;;;;;;10340416;28;88495;-61
2023/01/19 16:47:40;;;;;;;;;;;15.70;59.10;;;;;;10338858;28;90448;-61
2023/01/19 16:52:42;;;;;;;;;;;15.90;59.00;;;;;;10339964;28;88789;-61
2023/01/19 16:57:43;;;;;;;;;;;16.20;59.70;;;;;;10339168;28;89734;-61
2023/01/19 17:02:45;;;;;;;;;;;17.20;62.00;;;;;;10338481;28;88589;-61
2023/01/19 17:07:47;;;;;;;;;;;17.40;60.00;;;;;;10339320;28;89136;-61
2023/01/19 17:12:49;;;;;;;;;;;17.40;65.10;;;;;;10354432;28;90182;-62
2023/01/19 17:17:51;;;;;;;;;;;18.00;60.20;;;;;;10339101;28;88555;-61
2023/01/19 17:22:54;;;;;;;;;;;18.40;58.40;;;;;;10337018;28;88505;-60
2023/01/19 17:27:57;;;;;;;;;;;18.30;57.90;;;;;;10337262;28;89960;-60
2023/01/19 17:32:59;;;;;;;;;;;18.10;57.90;;;;;;10338993;28;88555;-61
2023/01/19 17:38:01;;;;;;;;;;;17.90;58.50;;;;;;10337414;28;90063;-61
2023/01/19 17:43:03;;;;;;;;;;;17.80;59.30;;;;;;10338336;28;88947;-61
2023/01/19 17:48:05;;;;;;;;;;;17.70;59.30;;;;;;10337095;28;89826;-61
2023/01/19 17:53:06;;;;;;;;;;;17.50;59.10;;;;;;10336077;28;90052;-61
2023/01/19 17:58:08;;;;;;;;;;;17.50;59.00;;;;;;10336190;28;88487;-61
2023/01/19 18:03:10;;;;;;;;;;;17.50;58.90;;;;;;10339241;28;88777;-61
2023/01/19 18:08:12;;;;;;;;;;;17.50;58.90;;;;;;10339835;28;89045;-61
2023/01/19 18:13:14;;;;;;;;;;;17.60;58.80;;;;;;10340536;28;89150;-61
2023/01/19 18:18:15;;;;;;;;;;;17.70;58.70;;;;;;10339151;28;89113;-61
2023/01/19 18:23:17;;;;;;;;;;;17.70;58.40;;;;;;10341028;28;88442;-61
2023/01/19 18:28:19;;;;;;;;;;;17.80;58.30;;;;;;10338486;28;88182;-61
2023/01/19 18:33:21;;;;;;;;;;;17.70;58.20;;;;;;10339294;28;88662;-61
2023/01/19 18:38:23;;;;;;;;;;;17.70;58.20;;;;;;10338128;28;89443;-60
2023/01/19 18:43:25;;;;;;;;;;;17.70;58.20;;;;;;10337962;28;88459;-60
2023/01/19 18:48:27;;;;;;;;;;;17.80;58.10;;;;;;10337921;28;88980;-60
2023/01/19 18:53:30;;;;;;;;;;;17.90;58.00;;;;;;10338329;28;89029;-60
2023/01/19 18:58:32;;;;;;;;;;;17.90;57.70;;;;;;10337606;28;89079;-59
2023/01/19 19:03:34;;;;;;;;;;;17.90;57.50;;;;;;10337459;28;88109;-60
2023/01/19 19:08:36;;;;;;;;;;;17.90;57.50;;;;;;10337323;28;89392;-60
2023/01/19 19:13:57;;;;;;;;;;;17.90;57.40;;;;;;10323479;28;107877;-60
2023/01/19 19:18:59;;;;;;;;;;;17.90;57.40;;;;;;10334691;28;90009;-60
2023/01/19 19:24:00;;;;;;;;;;;17.90;57.50;;;;;;10335890;28;87996;-60
2023/01/19 19:29:03;;;;;;;;;;;18.00;57.30;;;;;;10333574;28;90709;-60
2023/01/19 19:34:05;;;;;;;;;;;18.00;57.10;;;;;;10333872;28;89996;-60
2023/01/19 19:39:06;;;;;;;;;;;18.00;57.20;;;;;;10333340;28;89027;-60
2023/01/19 19:44:11;;;;;;;;;;;17.90;57.20;;;;;;10334358;28;89510;-60
2023/01/19 19:49:16;;;;;;;;;;;17.80;57.30;;;;;;10333833;28;89977;-60
2023/01/19 19:54:18;;;;;;;;;;;17.90;57.20;;;;;;10323629;28;89097;-61
2023/01/19 19:59:20;;;;;;;;;;;17.90;57.10;;;;;;10342084;28;88122;-60
2023/01/19 20:04:24;;;;;;;;;;;17.90;57.10;;;;;;10341141;28;88858;-61
2023/01/19 20:09:26;;;;;;;;;;;17.90;57.10;;;;;;10341544;28;89070;-60
2023/01/19 20:14:28;;;;;;;;;;;17.70;57.40;;;;;;10340423;28;90173;-60
2023/01/19 20:19:30;;;;;;;;;;;17.60;57.60;;;;;;10339802;28;90989;-61
2023/01/19 20:24:33;;;;;;;;;;;17.50;57.80;;;;;;10338560;28;88967;-61
2023/01/19 20:29:34;;;;;;;;;;;17.40;58.10;;;;;;10340275;28;89725;-61
2023/01/19 20:34:37;;;;;;;;;;;17.30;58.30;;;;;;10340073;28;88963;-61
2023/01/19 20:39:40;;;;;;;;;;;17.20;58.50;;;;;;10339568;28;89310;-61
2023/01/19 20:44:42;;;;;;;;;;;17.10;58.70;;;;;;10339997;28;89121;-60
2023/01/19 20:49:44;;;;;;;;;;;17.00;58.80;;;;;;10339908;28;89261;-61
2023/01/19 20:54:46;;;;;;;;;;;16.90;59.10;;;;;;10339241;28;88179;-61
2023/01/19 20:59:48;;;;;;;;;;;16.80;59.20;;;;;;10339477;28;90618;-61
2023/01/19 21:04:52;;;;;;;;;;;16.70;59.20;;;;;;10337607;28;89512;-61
2023/01/19 21:09:54;;;;;;;;;;;16.70;59.40;;;;;;10338602;28;89125;-60
2023/01/19 21:14:56;;;;;;;;;;;16.60;59.50;;;;;;10339594;28;89803;-61
2023/01/19 21:19:57;;;;;;;;;;;16.50;59.60;;;;;;10338877;28;89021;-60
2023/01/19 21:24:59;;;;;;;;;;;16.50;59.60;;;;;;10339084;28;90050;-63
2023/01/19 21:30:01;;;;;;;;;;;16.40;59.70;;;;;;10338968;28;89004;-61
2023/01/19 21:35:03;;;;;;;;;;;16.40;59.80;;;;;;10337447;28;89826;-61
2023/01/19 21:40:05;;;;;;;;;;;16.30;59.80;;;;;;10338178;28;89052;-60
2023/01/19 21:45:07;;;;;;;;;;;16.20;59.80;;;;;;10338758;28;89132;-60
2023/01/19 21:50:09;;;;;;;;;;;16.20;59.90;;;;;;10338623;28;89825;-60
2023/01/19 21:55:11;;;;;;;;;;;16.20;59.90;;;;;;10337652;28;89088;-60
2023/01/19 22:00:13;;;;;;;;;;;16.10;59.60;;;;;;10335816;28;90837;-61
2023/01/19 22:05:15;;;;;;;;;;;16.10;59.60;;;;;;10335732;28;89407;-61
2023/01/19 22:10:17;;;;;;;;;;;16.00;59.60;;;;;;10337711;28;88430;-61
2023/01/19 22:15:19;;;;;;;;;;;15.90;59.60;;;;;;10336973;28;89996;-61
2023/01/19 22:20:21;;;;;;;;;;;15.90;59.80;;;;;;10336847;28;89258;-61
2023/01/19 22:25:26;;;;;;;;;;;15.80;60.60;;;;;;10337217;28;89100;-61
2023/01/19 22:30:28;;;;;;;;;;;15.80;59.80;;;;;;10336387;28;89079;-61
2023/01/19 22:35:30;;;;;;;;;;;15.70;59.80;;;;;;10338422;28;87849;-61
2023/01/19 22:40:32;;;;;;;;;;;15.70;59.90;;;;;;10336987;28;90051;-61
2023/01/19 22:45:34;;;;;;;;;;;15.60;59.80;;;;;;10336853;28;88377;-61
2023/01/19 22:50:35;;;;;;;;;;;15.60;59.80;;;;;;10336293;28;88871;-61
2023/01/19 22:55:37;;;;;;;;;;;15.60;59.90;;;;;;10334949;28;88589;-61
2023/01/19 23:00:39;;;;;;;;;;;15.60;59.80;;;;;;10336372;28;88990;-61
2023/01/19 23:05:41;;;;;;;;;;;15.50;59.70;;;;;;10335852;28;89109;-61
2023/01/19 23:10:43;;;;;;;;;;;15.50;59.70;;;;;;10335841;28;89254;-61
2023/01/19 23:15:45;;;;;;;;;;;15.50;59.80;;;;;;10336582;28;89095;-61
2023/01/19 23:20:49;;;;;;;;;;;15.40;59.70;;;;;;10336417;28;89578;-61
2023/01/19 23:25:51;;;;;;;;;;;15.40;59.60;;;;;;10336500;28;88535;-61
2023/01/19 23:30:53;;;;;;;;;;;15.40;59.70;;;;;;10336018;28;89103;-61
2023/01/19 23:35:55;;;;;;;;;;;15.40;59.80;;;;;;10335619;28;88581;-61
2023/01/19 23:40:57;;;;;;;;;;;15.40;59.60;;;;;;10333120;28;89614;-61
2023/01/19 23:46:05;;;;;;;;;;;15.40;59.90;;;;;;10334335;28;89034;-61
2023/01/19 23:51:08;;;;;;;;;;;15.40;59.50;;;;;;10334887;28;88921;-61
2023/01/19 23:56:20;;;;;;;;;;;15.40;59.30;;;;;;10334964;28;88937;-61
